createdAt,value
2022-08-04T00:02:04.959Z,26.39
2022-08-04T00:04:38.893Z,26.41
2022-08-04T00:07:12.790Z,26.37
2022-08-04T00:09:48.573Z,26.34
2022-08-04T00:12:18.605Z,26.31
2022-08-04T00:14:50.054Z,26.31
2022-08-04T00:17:22.857Z,26.31
2022-08-04T00:19:57.235Z,26.27
2022-08-04T00:22:29.535Z,26.30
2022-08-04T00:24:59.338Z,26.33
2022-08-04T00:27:30.224Z,26.33
2022-08-04T00:29:59.153Z,26.30
2022-08-04T00:32:34.042Z,26.30
2022-08-04T00:35:03.394Z,26.28
2022-08-04T00:37:32.494Z,26.27
2022-08-04T00:40:01.663Z,26.27
2022-08-04T00:42:58.273Z,26.21
2022-08-04T00:46:16.618Z,26.17
2022-08-04T00:49:20.716Z,26.17
2022-08-04T00:52:30.755Z,26.18
2022-08-04T00:55:08.505Z,26.15
2022-08-04T00:57:52.284Z,26.17
2022-08-04T01:00:21.440Z,26.15
2022-08-04T01:03:06.933Z,26.09
2022-08-04T01:05:49.846Z,26.08
2022-08-04T01:08:55.642Z,26.04
2022-08-04T01:11:57.008Z,26.03
2022-08-04T01:14:50.620Z,26.04
2022-08-04T01:17:25.675Z,26.02
2022-08-04T01:20:07.780Z,26.01
2022-08-04T01:23:18.254Z,25.94
2022-08-04T01:26:41.855Z,25.90
2022-08-04T01:29:09.863Z,25.88
2022-08-04T01:31:52.148Z,25.88
2022-08-04T01:34:23.322Z,25.79
2022-08-04T01:37:00.695Z,25.79
2022-08-04T01:39:43.089Z,25.81
2022-08-04T01:42:31.453Z,25.82
2022-08-04T01:45:03.778Z,25.82
2022-08-04T01:47:35.304Z,25.80
2022-08-04T01:50:07.962Z,25.77
2022-08-04T01:52:37.322Z,25.78
2022-08-04T01:55:10.164Z,25.82
2022-08-04T01:57:42.653Z,25.80
2022-08-04T02:00:15.153Z,25.78
2022-08-04T02:02:43.785Z,25.78
2022-08-04T02:05:12.690Z,25.80
2022-08-04T02:08:14.668Z,25.75
2022-08-04T02:10:56.149Z,25.76
2022-08-04T02:13:32.393Z,25.77
2022-08-04T02:16:05.188Z,25.79
2022-08-04T02:18:41.970Z,25.79
2022-08-04T02:21:10.819Z,25.78
2022-08-04T02:23:41.890Z,25.79
2022-08-04T02:26:22.288Z,25.79
2022-08-04T02:28:59.809Z,25.80
2022-08-04T02:31:33.652Z,25.80
2022-08-04T02:34:08.877Z,25.77
2022-08-04T02:36:39.819Z,25.77
2022-08-04T02:39:10.014Z,25.75
2022-08-04T02:41:41.151Z,25.75
2022-08-04T02:44:11.407Z,25.76
2022-08-04T02:46:43.232Z,25.75
2022-08-04T02:49:12.179Z,25.75
2022-08-04T02:51:43.579Z,25.74
2022-08-04T02:54:12.385Z,25.69
2022-08-04T02:56:42.040Z,25.69
2022-08-04T02:59:12.300Z,25.69
2022-08-04T03:01:57.523Z,25.66
2022-08-04T03:04:52.322Z,25.61
2022-08-04T03:07:52.463Z,25.58
2022-08-04T03:10:50.681Z,25.57
2022-08-04T03:13:38.574Z,25.51
2022-08-04T03:16:38.667Z,25.52
2022-08-04T03:19:52.223Z,25.57
2022-08-04T03:23:12.104Z,25.53
2022-08-04T03:26:07.202Z,25.54
2022-08-04T03:29:04.928Z,25.54
2022-08-04T03:31:57.798Z,25.54
2022-08-04T03:34:38.018Z,25.58
2022-08-04T03:37:40.193Z,25.50
2022-08-04T03:40:34.747Z,25.51
2022-08-04T03:43:58.916Z,25.53
2022-08-04T03:46:43.549Z,25.53
2022-08-04T03:50:04.472Z,25.54
2022-08-04T03:53:12.007Z,25.50
2022-08-04T03:56:15.886Z,25.51
2022-08-04T03:59:07.007Z,25.53
2022-08-04T04:02:07.238Z,25.54
2022-08-04T04:05:22.872Z,25.57
2022-08-04T04:08:38.846Z,25.54
2022-08-04T04:11:25.771Z,25.58
2022-08-04T04:14:20.671Z,25.61
2022-08-04T04:17:06.507Z,25.58
2022-08-04T04:20:00.460Z,25.60
2022-08-04T04:23:01.640Z,25.61
2022-08-04T04:25:41.046Z,25.64
2022-08-04T04:28:46.961Z,25.67
2022-08-04T04:31:48.191Z,25.71
2022-08-04T04:34:27.824Z,25.74
2022-08-04T04:37:13.469Z,25.77
2022-08-04T04:39:53.233Z,25.81
2022-08-04T04:42:51.123Z,25.84
2022-08-04T04:45:28.279Z,25.81
2022-08-04T04:48:09.672Z,25.88
2022-08-04T04:50:51.936Z,25.91
2022-08-04T04:53:29.042Z,25.98
2022-08-04T04:56:04.795Z,26.07
2022-08-04T04:58:36.340Z,26.11
2022-08-04T05:01:46.425Z,26.12
2022-08-04T05:04:37.859Z,26.18
2022-08-04T05:07:33.537Z,26.20
2022-08-04T05:10:11.451Z,26.24
2022-08-04T05:14:35.206Z,26.30
2022-08-04T05:15:46.201Z,26.36
2022-08-04T05:18:20.644Z,26.37
2022-08-04T05:25:03.861Z,26.43
2022-08-04T05:27:40.475Z,26.50
2022-08-04T05:31:35.505Z,26.51
2022-08-04T05:35:04.741Z,26.56
2022-08-04T05:37:37.107Z,26.63
2022-08-04T05:40:13.958Z,26.64
2022-08-04T05:42:46.460Z,26.72
2022-08-04T05:45:28.086Z,26.81
2022-08-04T05:48:09.850Z,26.91
2022-08-04T05:50:40.625Z,26.98
2022-08-04T05:53:11.437Z,27.04
2022-08-04T05:55:57.071Z,27.16
2022-08-04T05:58:30.606Z,27.25
2022-08-04T06:01:00.720Z,27.37
2022-08-04T06:03:30.759Z,27.42
2022-08-04T06:06:00.889Z,27.44
2022-08-04T06:08:31.396Z,27.51
2022-08-04T06:11:04.838Z,27.57
2022-08-04T06:13:48.019Z,27.59
2022-08-04T06:16:28.867Z,27.66
2022-08-04T06:19:59.591Z,27.79
2022-08-04T06:21:55.825Z,27.93
2022-08-04T06:24:27.365Z,28.03
2022-08-04T06:26:56.638Z,28.18
2022-08-04T06:29:32.080Z,28.27
2022-08-04T06:32:29.638Z,28.32
2022-08-04T06:35:04.063Z,28.40
2022-08-04T06:37:41.869Z,28.55
2022-08-04T06:40:31.867Z,28.63
2022-08-04T06:43:04.256Z,28.78
2022-08-04T06:45:34.705Z,28.88
2022-08-04T06:48:04.609Z,29.03
2022-08-04T06:51:25.745Z,29.20
2022-08-04T06:53:23.429Z,29.30
2022-08-04T06:55:52.979Z,29.47
2022-08-04T06:58:22.300Z,29.58
2022-08-04T07:00:51.831Z,29.73
2022-08-04T07:03:21.775Z,29.89
2022-08-04T07:05:52.377Z,30.02
2022-08-04T07:08:22.780Z,30.17
2022-08-04T07:10:53.286Z,30.34
2022-08-04T07:13:23.686Z,30.47
2022-08-04T07:15:52.399Z,30.62
2022-08-04T07:18:20.569Z,30.69
2022-08-04T07:20:49.717Z,30.86
2022-08-04T07:23:23.858Z,30.96
2022-08-04T07:26:11.783Z,31.11
2022-08-04T07:28:41.543Z,31.44
2022-08-04T07:31:34.491Z,31.72
2022-08-04T07:34:17.248Z,31.97
2022-08-04T07:36:52.980Z,32.31
2022-08-04T07:39:28.123Z,32.50
2022-08-04T07:42:01.407Z,32.74
2022-08-04T07:44:30.907Z,32.99
2022-08-04T07:46:59.870Z,33.19
2022-08-04T07:49:57.340Z,33.35
2022-08-04T07:52:17.685Z,33.64
2022-08-04T07:54:46.731Z,33.79
2022-08-04T07:57:19.713Z,33.89
2022-08-04T08:00:09.027Z,33.95
2022-08-04T08:02:40.279Z,33.99
2022-08-04T08:05:09.971Z,33.92
2022-08-04T08:07:38.290Z,33.86
2022-08-04T08:10:19.757Z,33.93
2022-08-04T08:12:51.539Z,33.96
2022-08-04T08:15:20.991Z,34.05
2022-08-04T08:17:59.812Z,34.17
2022-08-04T08:20:30.917Z,34.20
2022-08-04T08:22:59.893Z,34.34
2022-08-04T08:25:28.350Z,34.40
2022-08-04T08:27:57.827Z,34.52
2022-08-04T08:30:31.644Z,34.56
2022-08-04T08:33:05.437Z,34.60
2022-08-04T08:35:47.405Z,34.67
2022-08-04T08:38:34.413Z,34.77
2022-08-04T08:41:24.605Z,34.98
2022-08-04T08:44:19.203Z,35.05
2022-08-04T08:47:18.027Z,35.04
2022-08-04T08:50:16.432Z,35.10
2022-08-04T08:53:14.883Z,35.20
2022-08-04T08:55:54.814Z,35.22
2022-08-04T08:58:36.586Z,35.26
2022-08-04T09:01:19.996Z,35.34
2022-08-04T09:04:32.329Z,35.28
2022-08-04T09:07:14.934Z,35.34
2022-08-04T09:10:06.735Z,35.39
2022-08-04T09:12:41.524Z,35.56
2022-08-04T09:18:06.304Z,35.51
2022-08-04T09:20:41.943Z,35.30
2022-08-04T09:23:21.396Z,35.15
2022-08-04T09:25:59.180Z,35.18
2022-08-04T09:28:53.092Z,35.10
2022-08-04T09:31:24.386Z,35.06
2022-08-04T09:34:02.745Z,35.00
2022-08-04T09:36:36.186Z,34.96
2022-08-04T09:39:11.413Z,34.89
2022-08-04T09:41:52.931Z,34.80
2022-08-04T09:44:50.180Z,34.78
2022-08-04T09:47:26.077Z,34.83
2022-08-04T09:50:19.707Z,34.97
2022-08-04T09:52:57.453Z,35.11
2022-08-04T09:55:53.906Z,35.36
2022-08-04T09:58:30.056Z,35.68
2022-08-04T10:01:03.704Z,35.75
2022-08-04T10:03:34.578Z,35.95
2022-08-04T10:06:14.995Z,36.24
2022-08-04T10:09:02.175Z,36.57
2022-08-04T10:11:55.520Z,36.77
2022-08-04T10:14:39.326Z,36.72
2022-08-04T10:17:21.508Z,36.72
2022-08-04T10:19:57.631Z,36.87
2022-08-04T10:22:55.413Z,37.16
2022-08-04T10:25:37.592Z,37.50
2022-08-04T10:28:25.537Z,37.75
2022-08-04T10:31:11.182Z,37.75
2022-08-04T10:33:46.127Z,37.80
2022-08-04T10:36:20.362Z,37.77
2022-08-04T10:38:58.487Z,37.76
2022-08-04T10:41:34.305Z,37.64
2022-08-04T10:44:14.713Z,37.52
2022-08-04T10:46:48.143Z,37.47
2022-08-04T10:49:25.441Z,37.73
2022-08-04T10:52:03.016Z,37.92
2022-08-04T10:54:45.176Z,37.97
2022-08-04T10:57:16.825Z,38.15
2022-08-04T10:59:54.285Z,38.28
2022-08-04T11:02:39.100Z,38.47
2022-08-04T11:05:44.067Z,38.58
2022-08-04T11:08:36.808Z,38.56
2022-08-04T11:12:00.941Z,38.71
2022-08-04T11:14:48.038Z,39.09
2022-08-04T11:20:34.742Z,39.77
2022-08-04T11:23:20.243Z,39.76
2022-08-04T11:29:06.923Z,40.25
2022-08-04T11:32:18.638Z,40.67
2022-08-04T11:35:20.694Z,40.96
2022-08-04T11:38:19.525Z,41.12
2022-08-04T11:41:03.384Z,41.04
2022-08-04T11:44:00.646Z,40.60
2022-08-04T11:50:02.638Z,40.78
2022-08-04T11:55:29.613Z,41.03
2022-08-04T11:57:57.982Z,41.33
2022-08-04T12:00:59.731Z,41.49
2022-08-04T12:03:37.970Z,41.63
2022-08-04T12:06:18.783Z,41.56
2022-08-04T12:09:05.450Z,41.26
2022-08-04T12:11:53.395Z,40.66
2022-08-04T12:15:20.857Z,40.21
2022-08-04T12:17:57.708Z,39.83
2022-08-04T12:20:40.575Z,39.92
2022-08-04T12:23:17.452Z,39.94
2022-08-04T12:25:49.422Z,40.02
2022-08-04T12:28:26.632Z,39.68
2022-08-04T12:31:11.636Z,39.40
2022-08-04T12:34:04.335Z,39.08
2022-08-04T12:36:41.159Z,38.84
2022-08-04T12:39:19.802Z,38.66
2022-08-04T12:45:08.364Z,37.97
2022-08-04T12:47:40.500Z,37.58
2022-08-04T12:50:19.768Z,37.19
2022-08-04T12:53:08.487Z,36.91
2022-08-04T12:55:40.795Z,36.60
2022-08-04T12:58:16.408Z,36.34
2022-08-04T13:02:07.221Z,35.98
2022-08-04T13:04:03.611Z,35.68
2022-08-04T13:06:35.997Z,35.38
2022-08-04T13:09:09.419Z,35.05
2022-08-04T13:11:44.040Z,34.71
2022-08-04T13:15:09.687Z,34.48
2022-08-04T13:18:04.446Z,34.12
2022-08-04T13:20:41.669Z,33.81
2022-08-04T13:23:20.164Z,33.55
2022-08-04T13:26:42.779Z,33.19
2022-08-04T13:30:00.645Z,32.96
2022-08-04T13:32:29.242Z,32.78
2022-08-04T13:34:59.427Z,32.68
2022-08-04T13:37:38.920Z,32.54
2022-08-04T13:40:16.432Z,32.45
2022-08-04T13:42:48.566Z,32.33
2022-08-04T13:45:22.498Z,32.26
2022-08-04T13:47:52.483Z,32.15
2022-08-04T13:50:23.853Z,32.01
2022-08-04T13:53:01.314Z,31.93
2022-08-04T13:55:32.566Z,31.87
2022-08-04T13:58:06.308Z,31.82
2022-08-04T14:00:55.760Z,31.75
2022-08-04T14:03:28.155Z,31.82
2022-08-04T14:06:12.172Z,31.89
2022-08-04T14:08:48.814Z,31.99
2022-08-04T14:12:06.442Z,32.07
2022-08-04T14:14:24.081Z,32.19
2022-08-04T14:17:05.472Z,32.52
2022-08-04T14:19:51.711Z,32.84
2022-08-04T14:22:36.488Z,33.19
2022-08-04T14:25:15.402Z,33.49
2022-08-04T14:27:46.718Z,33.81
2022-08-04T14:30:26.520Z,34.30
2022-08-04T14:34:02.041Z,34.71
2022-08-04T14:36:03.791Z,35.03
2022-08-04T14:38:48.411Z,35.18
2022-08-04T14:41:30.173Z,35.36
2022-08-04T14:43:59.655Z,35.48
2022-08-04T14:46:36.890Z,35.50
2022-08-04T14:49:12.480Z,35.54
2022-08-04T14:51:43.788Z,35.57
2022-08-04T14:54:18.593Z,35.72
2022-08-04T14:57:06.655Z,35.79
2022-08-04T14:59:59.042Z,35.59
2022-08-04T15:02:30.450Z,35.45
2022-08-04T15:06:00.825Z,35.52
2022-08-04T15:07:49.290Z,35.52
2022-08-04T15:10:27.073Z,35.37
2022-08-04T15:12:55.699Z,35.28
2022-08-04T15:15:36.428Z,35.24
2022-08-04T15:18:05.959Z,35.22
2022-08-04T15:21:20.573Z,35.19
2022-08-04T15:24:15.974Z,35.19
2022-08-04T15:26:51.033Z,35.13
2022-08-04T15:29:27.741Z,35.09
2022-08-04T15:32:05.380Z,35.09
2022-08-04T15:34:46.684Z,35.03
2022-08-04T15:37:20.065Z,34.95
2022-08-04T15:39:54.006Z,34.96
2022-08-04T15:42:32.682Z,34.99
2022-08-04T15:45:12.758Z,34.92
2022-08-04T15:47:41.421Z,34.73
2022-08-04T15:50:28.266Z,34.51
2022-08-04T15:53:12.659Z,34.49
2022-08-04T15:55:43.966Z,34.46
2022-08-04T15:58:13.477Z,34.45
2022-08-04T16:01:14.786Z,34.34
2022-08-04T16:03:58.276Z,34.33
2022-08-04T16:06:45.379Z,34.12
2022-08-04T16:09:25.547Z,34.22
2022-08-04T16:12:54.544Z,34.32
2022-08-04T16:15:41.902Z,34.30
2022-08-04T16:18:25.614Z,34.24
2022-08-04T16:20:56.674Z,34.14
2022-08-04T16:24:00.602Z,34.07
2022-08-04T16:26:56.201Z,33.92
2022-08-04T16:29:36.551Z,33.61
2022-08-04T16:32:26.479Z,33.41
2022-08-04T16:35:00.438Z,33.38
2022-08-04T16:37:34.867Z,33.35
2022-08-04T16:40:29.747Z,33.38
2022-08-04T16:43:04.021Z,33.50
2022-08-04T16:45:53.927Z,33.38
2022-08-04T16:48:26.745Z,33.18
2022-08-04T16:51:04.867Z,32.87
2022-08-04T16:53:53.205Z,32.50
2022-08-04T16:56:33.425Z,32.16
2022-08-04T16:59:09.959Z,32.02
2022-08-04T17:01:38.648Z,32.00
2022-08-04T17:04:07.701Z,31.94
2022-08-04T17:06:38.431Z,31.97
2022-08-04T17:09:10.687Z,32.02
2022-08-04T17:11:40.132Z,31.93
2022-08-04T17:14:47.923Z,31.81
2022-08-04T17:17:16.703Z,31.79
2022-08-04T17:19:54.344Z,31.75
2022-08-04T17:22:37.711Z,31.83
2022-08-04T17:25:06.544Z,31.88
2022-08-04T17:28:08.572Z,31.87
2022-08-04T17:30:30.112Z,31.90
2022-08-04T17:32:59.467Z,31.81
2022-08-04T17:35:27.898Z,31.74
2022-08-04T17:38:07.446Z,31.64
2022-08-04T17:40:50.471Z,31.51
2022-08-04T17:44:03.548Z,31.38
2022-08-04T17:46:29.089Z,31.25
2022-08-04T17:49:07.287Z,31.14
2022-08-04T17:52:04.672Z,31.10
2022-08-04T17:54:37.430Z,30.98
2022-08-04T17:57:36.547Z,30.83
2022-08-04T18:00:08.992Z,30.74
2022-08-04T18:02:55.582Z,30.65
2022-08-04T18:05:50.263Z,30.54
2022-08-04T18:08:35.247Z,30.46
2022-08-04T18:11:05.476Z,30.30
2022-08-04T18:13:42.798Z,30.15
2022-08-04T18:16:22.317Z,30.03
2022-08-04T18:19:10.764Z,29.91
2022-08-04T18:27:15.334Z,29.63
2022-08-04T18:32:33.459Z,29.32
2022-08-04T18:38:05.427Z,28.98
2022-08-04T18:40:53.069Z,28.82
2022-08-04T18:43:40.671Z,28.65
2022-08-04T18:48:58.132Z,28.39
2022-08-04T18:51:30.710Z,28.27
2022-08-04T18:54:00.340Z,28.15
2022-08-04T18:56:31.878Z,28.04
2022-08-04T19:02:13.573Z,27.73
2022-08-04T19:04:40.206Z,27.65
2022-08-04T19:07:29.471Z,27.55
2022-08-04T19:09:59.902Z,27.43
2022-08-04T19:12:28.895Z,27.34
2022-08-04T19:15:08.106Z,27.25
2022-08-04T19:17:53.977Z,27.17
2022-08-04T19:20:27.271Z,27.11
2022-08-04T19:24:29.998Z,27.06
2022-08-04T19:26:02.200Z,26.94
2022-08-04T19:28:40.346Z,26.84
2022-08-04T19:31:10.524Z,26.81
2022-08-04T19:33:59.211Z,26.75
2022-08-04T19:36:31.111Z,26.73
2022-08-04T19:39:02.415Z,26.65
2022-08-04T19:41:32.165Z,26.58
2022-08-04T19:44:00.903Z,26.53
2022-08-04T19:46:29.202Z,26.49
2022-08-04T19:48:59.692Z,26.42
2022-08-04T19:51:30.218Z,26.39
2022-08-04T19:54:03.769Z,26.33
2022-08-04T19:56:40.189Z,26.25
2022-08-04T19:59:09.443Z,26.19
2022-08-04T20:01:44.903Z,26.13
2022-08-04T20:04:13.807Z,26.05
2022-08-04T20:06:42.488Z,26.03
2022-08-04T20:09:24.546Z,26.01
2022-08-04T20:11:54.638Z,25.95
2022-08-04T20:14:31.136Z,25.91
2022-08-04T20:17:03.107Z,25.87
2022-08-04T20:19:38.266Z,25.82
2022-08-04T20:22:50.869Z,25.77
2022-08-04T20:25:00.918Z,25.72
2022-08-04T20:27:59.812Z,25.66
2022-08-04T20:30:29.441Z,25.62
2022-08-04T20:32:57.472Z,25.59
2022-08-04T20:35:27.146Z,25.51
2022-08-04T20:38:00.282Z,25.46
2022-08-04T20:40:44.128Z,25.42
2022-08-04T20:43:21.426Z,25.38
2022-08-04T20:45:56.948Z,25.37
2022-08-04T20:48:53.099Z,25.33
2022-08-04T20:51:25.932Z,25.25
2022-08-04T20:54:16.709Z,25.21
2022-08-04T20:56:56.214Z,25.19
2022-08-04T20:59:29.375Z,25.16
2022-08-04T21:02:01.333Z,25.15
2022-08-04T21:04:37.643Z,25.13
2022-08-04T21:07:17.877Z,25.09
2022-08-04T21:09:51.241Z,25.05
2022-08-04T21:12:28.414Z,25.03
2022-08-04T21:15:14.207Z,25.00
2022-08-04T21:17:56.811Z,24.94
2022-08-04T21:20:30.064Z,24.88
2022-08-04T21:23:05.042Z,24.86
2022-08-04T21:25:42.625Z,24.82
2022-08-04T21:28:20.052Z,24.78
2022-08-04T21:30:54.378Z,24.77
2022-08-04T21:33:51.232Z,24.77
2022-08-04T21:36:20.636Z,24.78
2022-08-04T21:38:53.664Z,24.77
2022-08-04T21:44:15.538Z,24.87
2022-08-04T21:46:49.378Z,24.94
2022-08-04T21:49:23.019Z,24.99
2022-08-04T21:52:00.018Z,25.00
2022-08-04T21:54:31.261Z,25.03
2022-08-04T21:57:06.222Z,25.02
2022-08-04T21:59:45.062Z,25.01
2022-08-04T22:02:16.937Z,24.98
2022-08-04T22:04:55.527Z,24.97
2022-08-04T22:07:23.890Z,24.93
2022-08-04T22:10:11.712Z,24.91
2022-08-04T22:12:43.558Z,24.88
2022-08-04T22:15:23.042Z,24.89
2022-08-04T22:18:12.781Z,24.92
2022-08-04T22:20:41.401Z,24.83
2022-08-04T22:23:16.944Z,24.77
2022-08-04T22:25:53.534Z,24.73
2022-08-04T22:28:28.305Z,24.72
2022-08-04T22:30:59.679Z,24.71
2022-08-04T22:33:54.337Z,24.71
2022-08-04T22:36:25.414Z,24.70
2022-08-04T22:39:06.829Z,24.71
2022-08-04T22:42:03.068Z,24.72
2022-08-04T22:44:34.214Z,24.69
2022-08-04T22:47:09.876Z,24.73
2022-08-04T22:50:13.506Z,24.73
2022-08-04T22:52:55.868Z,24.73
2022-08-04T22:55:25.402Z,24.73
2022-08-04T22:58:16.868Z,24.73
2022-08-04T23:00:52.941Z,24.72
2022-08-04T23:03:37.389Z,24.74
2022-08-04T23:06:08.387Z,24.70
2022-08-04T23:08:43.276Z,24.64
2022-08-04T23:11:17.143Z,24.58
2022-08-04T23:13:47.209Z,24.54
2022-08-04T23:16:19.748Z,24.51
2022-08-04T23:18:49.785Z,24.54
2022-08-04T23:21:24.219Z,24.56
2022-08-04T23:24:00.806Z,24.56
2022-08-04T23:30:21.874Z,24.53
2022-08-04T23:32:53.495Z,24.56
2022-08-04T23:35:23.389Z,24.54
2022-08-04T23:37:56.624Z,24.50
2022-08-04T23:40:33.474Z,24.48
2022-08-04T23:43:12.174Z,24.48
2022-08-04T23:46:07.176Z,24.41
2022-08-04T23:48:34.475Z,24.28
2022-08-04T23:51:14.528Z,24.27
2022-08-04T23:54:02.319Z,24.30
2022-08-04T23:56:32.558Z,24.31
2022-08-04T23:59:03.978Z,24.31
